Weather observations for the past three days for
The Gabreski Airport
Imperial (Metric)
Date Time (edt) Wind (mph) Vis. (mi.) Weather Sky Cond. Temperature (ºF) Relative Humidity Wind Chill (°F) Heat Index (°F) Pressure Precipitation (in)
Air Dwpt 6 hour altimeter (in) sea level (mb) 1 hr 3 hr 6 hr
Max. Min.
05 16:53 SW 16 G 29 10.00 Fair CLR 60.1 50 70% 29.85 1010.6
05 15:53 SW 17 G 31 10.00 Fair CLR 61 50 67% 29.86 1010.9
05 14:53 SW 21 G 31 10.00 Fair and Breezy CLR 59 50 72% 29.88 1011.8
05 13:53 SW 16 G 29 10.00 Fair CLR 59 50 61 55 72% 29.89 1012.0
05 12:53 SW 16 G 24 10.00 Fair CLR 61 51.1 70% 29.9 1012.3
05 11:53 SW 13 G 28 10.00 Fair CLR 60.1 51.1 72% 29.91 1012.9
05 10:53 SW 13 G 25 10.00 Fair CLR 60.1 51.1 72% 29.92 1013.0
05 09:53 SW 12 G 20 9.00 Mostly Cloudy BKN110 57.9 51.1 78% 29.91 1012.7
05 08:53 SW 10 G 20 10.00 A Few Clouds FEW120 57 51.1 81% 29.91 1012.7
05 07:53 SW 10 G 20 9.00 Fair CLR 55.9 51.1 55.9 52 84% 29.9 1012.6
05 06:53 SW 7 8.00 Fair CLR 53.1 50 89% 29.89 1012.2
05 05:53 SW 6 9.00 Partly Cloudy SCT120 53.1 48.9 86% 29.88 1011.6
05 04:53 SW 7 10.00 Fair CLR 52 48.9 89% 29.88 1011.6
05 03:53 SW 6 10.00 Fair CLR 52 48 86% 29.88 1011.8
05 02:53 SW 6 10.00 Fair CLR 52 48 86% 29.88 1011.8
05 01:53 SW 7 10.00 Fair CLR 52 48 53.1 51.1 86% 29.9 1012.3
05 00:53 SW 7 10.00 Fair CLR 52 48 86% 29.91 1012.7
04 23:53 SW 7 10.00 Fair CLR 52 48 86% 29.91 1012.9
04 22:53 SW 7 10.00 Fair CLR 52 48 86% 29.91 1012.9
04 21:53 SW 8 10.00 Fair CLR 52 46.9 83% 29.91 1012.9
04 20:53 SW 10 10.00 Fair CLR 53.1 46.9 80% 29.9 1012.3
04 19:53 SW 9 G 22 10.00 Fair CLR 51.1 46.9 61 51.1 86% 29.88 1011.6
04 18:53 SW 12 G 25 10.00 Fair CLR 53.1 46.9 80% 29.87 1011.6
04 17:53 SW 13 G 22 10.00 Fair CLR 55 46 72% 29.88 1011.9
04 16:53 SW 16 G 28 10.00 Fair CLR 57.9 45 62% 29.88 1011.8
04 15:53 SW 15 G 26 10.00 Fair CLR 59 45 60% 29.89 1012.0
04 14:53 SW 14 G 26 10.00 Fair CLR 59 44.1 58% 29.9 1012.4
04 13:53 SW 17 G 26 10.00 Fair CLR 59 45 60.1 54 60% 29.91 1012.7
04 12:53 SW 16 G 25 10.00 Fair CLR 59 46.9 64% 29.92 1013.3
04 11:53 SW 14 G 21 10.00 Fair CLR 60.1 44.1 56% 29.94 1013.9
04 10:53 SW 14 G 22 10.00 Fair CLR 59 44.1 58% 29.95 1014.1
04 09:53 SW 14 G 26 10.00 Fair CLR 57.9 42.1 56% 29.95 1014.1
04 08:53 SW 12 G 29 10.00 Fair CLR 57.9 39.9 51% 29.96 1014.7
04 07:53 SW 9 G 21 10.00 Fair CLR 54 41 54 30 62% 29.96 1014.7
04 06:53 SW 10 G 17 10.00 Fair CLR 51.1 42.1 71% 29.96 1014.4
04 05:53 SW 9 10.00 Fair CLR 48 41 77% 44 29.95 1014.1
04 04:53 W 5 10.00 Fair CLR 41 34 76% 38 29.94 1013.8
04 03:53 W 3 10.00 Fair CLR 32 27 82% 29.93 1013.5
04 02:53 Calm 10.00 Fair CLR 30 24.1 79% 29.92 1013.1
04 01:53 Calm 10.00 Fair CLR 30.9 24.1 46 30 76% 29.92 1013.0
04 00:53 Calm 10.00 Fair CLR 32 23 69% 29.91 1013.0
03 23:53 Calm 10.00 Fair CLR 32 24.1 73% 29.91 1012.9
03 22:53 Calm 10.00 Fair CLR 34 25 70% 29.91 1012.7
03 21:53 Calm 10.00 A Few Clouds FEW090 35.1 26.1 70% 29.9 1012.5
03 20:53 Calm 10.00 Partly Cloudy SCT095 39 28 65% 29.88 1011.9
03 19:53 Calm 10.00 Fair CLR 46 28.9 57.9 46 51% 29.86 1011.1
03 18:53 NW 8 10.00 Fair CLR 55.9 24.1 29% 29.85 1010.7
03 17:53 NW 14 G 22 10.00 Fair CLR 55.9 24.1 29% 29.83 1010.2
03 16:53 NW 22 G 32 10.00 Fair and Breezy CLR 55.9 21.9 27% 29.82 1009.7
03 15:53 W 23 G 39 10.00 A Few Clouds and Breezy FEW070 55.9 21.9 27% 29.81 1009.6
03 14:53 NW 18 G 29 10.00 Fair CLR 55 21.9 28% 29.81 1009.6
03 13:53 NW 21 G 30 10.00 Mostly Cloudy and Breezy BKN060 BKN080 54 23 55.9 46 30% 29.83 1010.0
03 12:53 NW 21 G 33 10.00 A Few Clouds and Breezy FEW080 55 26.1 33% 29.82 1009.8
03 11:53 NW 22 G 38 10.00 Partly Cloudy and Breezy SCT055 53.1 27 37% 29.82 1009.8
03 10:53 NW 22 G 32 10.00 Fair and Breezy CLR 53.1 28.9 40% 29.82 1010.0
03 09:53 NW 21 G 31 10.00 Fair and Breezy CLR 51.1 30 45% 29.82 1009.8
03 08:53 NW 21 G 31 10.00 Mostly Cloudy and Breezy BKN095 48 30 50% 41 29.81 1009.6
03 07:53 NW 20 G 30 10.00 Overcast OVC095 46.9 30 48 43 52% 40 29.82 1009.7
03 06:53 NW 12 10.00 Fair CLR 44.1 30 58% 39 29.81 1009.5
03 05:53 N 16 10.00 Fair CLR 43 28 56% 36 29.8 1009.1
03 04:53 N 17 G 24 10.00 Overcast OVC090 45 27 49% 38 29.79 1008.9
03 03:53 N 15 10.00 Overcast OVC095 46 28 50% 40 29.8 1009.2
03 02:53 N 10 10.00 Fair CLR 46.9 28 48% 43 29.8 1009.3
03 01:53 N 10 10.00 A Few Clouds FEW120 48 28.9 50 42.1 48% 44 29.82 1009.7
03 00:53 N 13 10.00 Fair CLR 48.9 30.9 50% 44 29.84 1010.5
02 23:53 N 8 10.00 Fair CLR 48 41 77% 45 29.84 1010.6
02 22:53 N 3 10.00 Partly Cloudy FEW048 SCT075 43 41 93% 29.85 1010.9
02 21:53 Calm 10.00 Fair CLR 45 43 93% 29.85 1011.0
02 20:53 Calm 10.00 Fair CLR 46 45 96% 29.85 1010.9
02 19:53 Calm 10.00 Fair CLR 50 46 54 50 86% 29.84 1010.5
02 18:53 SE 5 10.00 A Few Clouds FEW047 52 46.9 83% 29.85 1010.7
02 17:53 Vrbl 3 10.00 Fair CLR 54 46.9 77% 29.84 1010.6
Date Time (edt) Wind (mph) Vis. (mi.) Weather Sky Cond. Air Dwpt Max. Min. Relative Humidity Wind Chill (°F) Heat Index (°F) altimeter (in) sea level (mb) 1 hr 3 hr 6 hr
6 hour
Temperature (ºF) Pressure Precipitation (in)